createdAt,value
2019-04-28T00:01:04.153Z,100.00
2019-04-28T00:03:33.732Z,100.00
2019-04-28T00:06:06.686Z,100.00
2019-04-28T00:08:36.487Z,100.00
2019-04-28T00:11:06.120Z,100.00
2019-04-28T00:13:35.771Z,100.00
2019-04-28T00:16:07.198Z,100.00
2019-04-28T00:18:36.850Z,100.00
2019-04-28T00:21:31.948Z,100.00
2019-04-28T00:24:18.964Z,100.00
2019-04-28T00:26:53.282Z,100.00
2019-04-28T00:29:22.879Z,100.00
2019-04-28T00:31:52.400Z,100.00
2019-04-28T00:34:21.947Z,100.00
2019-04-28T00:37:02.934Z,100.00
2019-04-28T00:39:33.979Z,100.00
2019-04-28T00:42:03.673Z,100.00
2019-04-28T00:44:33.256Z,100.00
2019-04-28T00:47:02.785Z,100.00
2019-04-28T00:49:47.485Z,100.00
2019-04-28T00:52:22.190Z,100.00
2019-04-28T00:54:52.520Z,100.00
2019-04-28T00:57:22.416Z,100.00
2019-04-28T00:59:57.453Z,100.00
2019-04-28T01:02:31.710Z,100.00
2019-04-28T01:05:01.807Z,100.00
2019-04-28T01:07:33.062Z,100.00
2019-04-28T01:10:02.747Z,100.00
2019-04-28T01:12:32.358Z,100.00
2019-04-28T01:15:04.792Z,100.00
2019-04-28T01:17:50.767Z,100.00
2019-04-28T01:20:21.295Z,100.00
2019-04-28T01:22:50.695Z,100.00
2019-04-28T01:25:20.460Z,100.00
2019-04-28T01:28:00.205Z,100.00
2019-04-28T01:30:47.601Z,100.00
2019-04-28T01:33:37.761Z,100.00
2019-04-28T01:36:07.318Z,100.00
2019-04-28T01:38:36.762Z,100.00
2019-04-28T01:41:06.199Z,100.00
2019-04-28T01:43:35.728Z,100.00
2019-04-28T01:46:05.141Z,100.00
2019-04-28T01:48:34.563Z,100.00
2019-04-28T01:51:04.061Z,100.00
2019-04-28T01:53:33.511Z,100.00
2019-04-28T01:56:03.061Z,100.00
2019-04-28T01:58:32.422Z,100.00
2019-04-28T02:01:02.012Z,100.00
2019-04-28T02:03:31.431Z,100.00
2019-04-28T02:06:00.818Z,100.00
2019-04-28T02:08:30.444Z,100.00
2019-04-28T02:11:00.267Z,100.00
2019-04-28T02:13:30.037Z,100.00
2019-04-28T02:16:00.092Z,100.00
2019-04-28T02:18:30.098Z,100.00
2019-04-28T02:21:17.344Z,100.00
2019-04-28T02:23:46.784Z,100.00
2019-04-28T02:26:16.242Z,100.00
2019-04-28T02:28:45.627Z,100.00
2019-04-28T02:31:15.086Z,100.00
2019-04-28T02:33:44.558Z,100.00
2019-04-28T02:36:14.111Z,100.00
2019-04-28T02:38:43.488Z,100.00
2019-04-28T02:41:12.798Z,100.00
2019-04-28T02:43:42.599Z,100.00
2019-04-28T02:46:12.524Z,100.00
2019-04-28T02:48:41.877Z,100.00
2019-04-28T02:51:21.902Z,100.00
2019-04-28T02:53:51.465Z,100.00
2019-04-28T02:56:21.365Z,100.00
2019-04-28T02:58:51.296Z,100.00
2019-04-28T03:01:26.161Z,100.00
2019-04-28T03:03:51.881Z,100.00
2019-04-28T03:06:21.386Z,100.00
2019-04-28T03:08:50.772Z,100.00
2019-04-28T03:11:20.500Z,100.00
2019-04-28T03:13:51.138Z,100.00
2019-04-28T03:16:23.082Z,100.00
2019-04-28T03:18:52.002Z,100.00
2019-04-28T03:21:21.543Z,100.00
2019-04-28T03:23:51.781Z,100.00
2019-04-28T03:26:43.243Z,100.00
2019-04-28T03:29:31.060Z,100.00
2019-04-28T03:32:28.835Z,100.00
2019-04-28T03:34:47.473Z,100.00
2019-04-28T03:37:16.998Z,100.00
2019-04-28T03:39:46.545Z,100.00
2019-04-28T03:42:15.965Z,100.00
2019-04-28T03:44:45.378Z,100.00
2019-04-28T03:47:14.744Z,100.00
2019-04-28T03:49:44.224Z,100.00
2019-04-28T03:52:13.716Z,100.00
2019-04-28T03:54:43.599Z,100.00
2019-04-28T03:57:13.069Z,100.00
2019-04-28T03:59:43.754Z,100.00
2019-04-28T04:02:13.285Z,100.00
2019-04-28T04:04:42.759Z,100.00
2019-04-28T04:07:12.258Z,100.00
2019-04-28T04:09:51.893Z,100.00
2019-04-28T04:12:30.911Z,100.00
2019-04-28T04:15:07.127Z,100.00
2019-04-28T04:18:01.954Z,100.00
2019-04-28T04:20:31.664Z,100.00
2019-04-28T04:23:01.660Z,100.00
2019-04-28T04:25:31.600Z,100.00
2019-04-28T04:28:03.697Z,100.00
2019-04-28T04:30:32.185Z,100.00
2019-04-28T04:33:01.968Z,100.00
2019-04-28T04:35:31.813Z,100.00
2019-04-28T04:38:01.239Z,100.00
2019-04-28T04:40:31.720Z,100.00
2019-04-28T04:43:02.004Z,100.00
2019-04-28T04:45:31.626Z,100.00
2019-04-28T04:48:01.087Z,100.00
2019-04-28T04:50:31.382Z,100.00
2019-04-28T04:53:02.758Z,100.00
2019-04-28T04:55:32.828Z,100.00
2019-04-28T04:58:02.321Z,100.00
2019-04-28T05:00:45.185Z,100.00
2019-04-28T05:03:21.215Z,100.00
2019-04-28T05:05:51.017Z,100.00
2019-04-28T05:08:20.471Z,100.00
2019-04-28T05:10:50.443Z,100.00
2019-04-28T05:13:20.144Z,100.00
2019-04-28T05:15:50.752Z,100.00
2019-04-28T05:18:21.231Z,100.00
2019-04-28T05:20:50.715Z,100.00
2019-04-28T05:23:40.085Z,100.00
2019-04-28T05:26:11.308Z,100.00
2019-04-28T05:28:43.953Z,100.00
2019-04-28T05:31:19.852Z,100.00
2019-04-28T05:33:43.136Z,100.00
2019-04-28T05:36:12.941Z,100.00
2019-04-28T05:38:44.314Z,100.00
2019-04-28T05:41:13.810Z,99.22
2019-04-28T05:43:43.202Z,99.75
2019-04-28T05:46:12.691Z,98.99
2019-04-28T05:49:01.088Z,99.00
2019-04-28T05:51:32.514Z,98.89
2019-04-28T05:54:21.170Z,98.50
2019-04-28T05:57:13.171Z,98.30
2019-04-28T05:59:50.716Z,98.33
2019-04-28T06:02:27.748Z,96.95
2019-04-28T06:04:57.278Z,97.61
2019-04-28T06:07:35.647Z,97.29
2019-04-28T06:10:05.991Z,97.07
2019-04-28T06:12:35.383Z,96.78
2019-04-28T06:15:05.104Z,96.96
2019-04-28T06:17:34.770Z,96.42
2019-04-28T06:20:04.568Z,96.00
2019-04-28T06:22:33.978Z,95.46
2019-04-28T06:25:03.498Z,93.75
2019-04-28T06:27:32.878Z,94.46
2019-04-28T06:30:02.377Z,93.27
2019-04-28T06:32:31.704Z,93.93
2019-04-28T06:35:01.180Z,91.94
2019-04-28T06:37:30.646Z,92.90
2019-04-28T06:40:00.061Z,92.41
2019-04-28T06:42:29.429Z,91.69
2019-04-28T06:44:58.953Z,91.57
2019-04-28T06:47:28.314Z,91.03
2019-04-28T06:49:57.714Z,90.69
2019-04-28T06:52:27.070Z,87.31
2019-04-28T06:54:57.041Z,87.65
2019-04-28T06:57:26.654Z,88.14
2019-04-28T06:59:56.051Z,86.62
2019-04-28T07:02:25.612Z,85.60
2019-04-28T07:05:01.540Z,85.31
2019-04-28T07:07:26.326Z,84.50
2019-04-28T07:09:55.805Z,84.48
2019-04-28T07:12:25.265Z,83.73
2019-04-28T07:14:54.708Z,82.28
2019-04-28T07:17:24.131Z,79.26
2019-04-28T07:20:02.221Z,80.65
2019-04-28T07:22:31.987Z,80.05
2019-04-28T07:25:01.434Z,80.44
2019-04-28T07:27:30.843Z,79.58
2019-04-28T07:30:00.308Z,79.59
2019-04-28T07:32:29.774Z,78.80
2019-04-28T07:34:59.211Z,78.50
2019-04-28T07:37:28.763Z,74.46
2019-04-28T07:39:59.029Z,76.16
2019-04-28T07:42:28.577Z,72.42
2019-04-28T07:44:57.967Z,74.91
2019-04-28T07:47:27.424Z,71.55
2019-04-28T07:49:56.858Z,73.43
2019-04-28T07:52:32.864Z,74.09
2019-04-28T07:55:02.362Z,74.17
2019-04-28T07:57:31.924Z,73.69
2019-04-28T08:00:01.384Z,71.13
2019-04-28T08:02:31.032Z,70.90
2019-04-28T08:05:00.548Z,71.41
2019-04-28T08:07:30.105Z,67.38
2019-04-28T08:09:59.500Z,68.60
2019-04-28T08:12:29.119Z,68.20
2019-04-28T08:14:58.631Z,65.50
2019-04-28T08:17:28.070Z,61.94
2019-04-28T08:19:57.448Z,63.77
2019-04-28T08:22:26.965Z,62.59
2019-04-28T08:24:56.684Z,61.21
2019-04-28T08:27:26.224Z,59.48
2019-04-28T08:29:58.620Z,61.61
2019-04-28T08:32:46.141Z,61.65
2019-04-28T08:35:15.723Z,59.67
2019-04-28T08:37:45.255Z,61.74
2019-04-28T08:40:14.903Z,62.28
2019-04-28T08:42:44.430Z,62.32
2019-04-28T08:45:14.999Z,59.33
2019-04-28T08:47:44.522Z,59.55
2019-04-28T08:50:14.127Z,57.19
2019-04-28T08:52:43.548Z,57.46
2019-04-28T08:55:13.088Z,57.40
2019-04-28T08:57:42.543Z,60.17
2019-04-28T09:00:12.758Z,60.85
2019-04-28T09:02:42.123Z,60.72
2019-04-28T09:05:11.530Z,58.32
2019-04-28T09:07:40.982Z,54.60
2019-04-28T09:10:10.418Z,58.12
2019-04-28T09:12:39.804Z,57.49
2019-04-28T09:15:09.883Z,59.02
2019-04-28T09:17:39.328Z,59.47
2019-04-28T09:20:09.110Z,59.60
2019-04-28T09:22:38.712Z,58.25
2019-04-28T09:25:08.298Z,56.00
2019-04-28T09:27:37.791Z,56.67
2019-04-28T09:30:07.302Z,56.98
2019-04-28T09:32:36.824Z,56.37
2019-04-28T09:35:06.262Z,57.42
2019-04-28T09:37:35.702Z,58.23
2019-04-28T09:40:11.794Z,58.42
2019-04-28T09:43:03.481Z,57.84
2019-04-28T09:45:44.934Z,57.99
2019-04-28T09:48:14.360Z,57.98
2019-04-28T09:50:43.751Z,57.39
2019-04-28T09:53:13.184Z,56.56
2019-04-28T09:55:42.732Z,56.63
2019-04-28T09:58:12.243Z,56.52
2019-04-28T10:00:41.749Z,56.46
2019-04-28T10:03:11.658Z,55.66
2019-04-28T10:05:41.113Z,54.34
2019-04-28T10:08:10.599Z,51.85
2019-04-28T10:10:40.085Z,50.13
2019-04-28T10:13:09.614Z,52.85
2019-04-28T10:15:39.053Z,53.17
2019-04-28T10:18:08.453Z,52.85
2019-04-28T10:20:37.902Z,51.58
2019-04-28T10:23:07.428Z,49.38
2019-04-28T10:25:36.786Z,48.62
2019-04-28T10:28:06.480Z,46.54
2019-04-28T10:30:35.855Z,46.69
2019-04-28T10:33:05.324Z,47.52
2019-04-28T10:35:34.807Z,49.27
2019-04-28T10:38:04.345Z,49.32
2019-04-28T10:41:02.574Z,48.17
2019-04-28T10:43:32.086Z,50.57
2019-04-28T10:46:01.687Z,52.90
2019-04-28T10:48:31.305Z,53.90
2019-04-28T10:51:01.310Z,54.18
2019-04-28T10:53:30.929Z,54.23
2019-04-28T10:56:00.305Z,63.34
2019-04-28T10:58:29.814Z,65.50
2019-04-28T11:00:59.223Z,67.38
2019-04-28T11:03:28.692Z,69.67
2019-04-28T11:05:58.221Z,70.52
2019-04-28T11:08:58.965Z,71.27
2019-04-28T11:11:28.943Z,72.37
2019-04-28T11:13:58.518Z,75.07
2019-04-28T11:16:32.154Z,78.14
2019-04-28T11:19:01.887Z,79.99
2019-04-28T11:21:31.370Z,80.25
2019-04-28T11:24:00.818Z,80.56
2019-04-28T11:26:30.328Z,79.59
2019-04-28T11:28:59.957Z,80.69
2019-04-28T11:31:29.609Z,80.65
2019-04-28T11:34:23.088Z,80.37
2019-04-28T11:36:52.511Z,76.20
2019-04-28T11:39:41.883Z,71.80
2019-04-28T11:42:11.354Z,70.92
2019-04-28T11:44:40.853Z,65.95
2019-04-28T11:47:12.049Z,57.20
2019-04-28T11:49:41.483Z,54.94
2019-04-28T11:52:11.044Z,48.60
2019-04-28T11:54:40.609Z,50.02
2019-04-28T11:57:10.049Z,49.43
2019-04-28T11:59:39.442Z,47.95
2019-04-28T12:02:09.238Z,45.92
2019-04-28T12:04:38.954Z,46.05
2019-04-28T12:07:08.442Z,42.82
2019-04-28T12:09:46.267Z,44.65
2019-04-28T12:12:43.687Z,45.31
2019-04-28T12:15:35.434Z,46.18
2019-04-28T12:18:22.809Z,41.47
2019-04-28T12:20:52.245Z,42.00
2019-04-28T12:23:21.627Z,42.91
2019-04-28T12:25:51.151Z,46.39
2019-04-28T12:28:20.584Z,46.18
2019-04-28T12:30:50.024Z,42.67
2019-04-28T12:33:19.639Z,44.54
2019-04-28T12:35:49.179Z,45.13
2019-04-28T12:38:18.610Z,44.98
2019-04-28T12:40:48.106Z,42.25
2019-04-28T12:43:17.570Z,43.25
2019-04-28T12:45:47.044Z,43.86
2019-04-28T12:48:16.404Z,43.37
2019-04-28T12:50:49.623Z,43.08
2019-04-28T12:53:19.304Z,40.72
2019-04-28T12:55:48.804Z,41.07
2019-04-28T12:58:18.353Z,42.10
2019-04-28T13:01:06.767Z,41.08
2019-04-28T13:03:46.350Z,41.86
2019-04-28T13:06:17.305Z,45.23
2019-04-28T13:08:46.789Z,47.15
2019-04-28T13:11:16.244Z,49.40
2019-04-28T13:13:47.017Z,50.42
2019-04-28T13:16:16.647Z,50.77
2019-04-28T13:18:46.131Z,50.24
2019-04-28T13:21:15.583Z,50.38
2019-04-28T13:23:45.085Z,52.51
2019-04-28T13:26:14.666Z,53.70
2019-04-28T13:28:44.170Z,54.61
2019-04-28T13:31:13.679Z,56.07
2019-04-28T13:33:55.923Z,56.30
2019-04-28T13:36:15.338Z,54.84
2019-04-28T13:38:45.005Z,54.31
2019-04-28T13:41:14.601Z,51.37
2019-04-28T13:43:44.065Z,45.80
2019-04-28T13:46:13.524Z,42.86
2019-04-28T13:48:43.172Z,43.67
2019-04-28T13:51:12.798Z,41.68
2019-04-28T13:53:42.575Z,43.41
2019-04-28T13:56:12.120Z,44.28
2019-04-28T13:58:53.642Z,43.21
2019-04-28T14:01:57.162Z,41.88
2019-04-28T14:04:51.291Z,44.00
2019-04-28T14:07:20.751Z,45.94
2019-04-28T14:09:50.404Z,45.88
2019-04-28T14:12:19.818Z,46.79
2019-04-28T14:14:49.398Z,49.60
2019-04-28T14:17:18.883Z,50.97
2019-04-28T14:19:48.363Z,52.31
2019-04-28T14:22:17.878Z,53.19
2019-04-28T14:24:47.487Z,53.65
2019-04-28T14:27:17.008Z,54.36
2019-04-28T14:29:46.617Z,55.36
2019-04-28T14:32:16.158Z,55.01
2019-04-28T14:34:45.618Z,54.68
2019-04-28T14:37:15.144Z,54.65
2019-04-28T14:39:44.590Z,54.46
2019-04-28T14:42:14.041Z,53.90
2019-04-28T14:44:43.536Z,53.75
2019-04-28T14:47:16.058Z,52.82
2019-04-28T14:49:45.597Z,51.92
2019-04-28T14:52:15.238Z,50.21
2019-04-28T14:54:44.667Z,46.60
2019-04-28T14:57:14.468Z,44.85
2019-04-28T14:59:43.982Z,38.74
2019-04-28T15:02:31.399Z,38.41
2019-04-28T15:05:09.830Z,38.10
2019-04-28T15:07:55.927Z,37.34
2019-04-28T15:10:43.207Z,37.94
2019-04-28T15:13:12.727Z,36.74
2019-04-28T15:15:42.432Z,36.95
2019-04-28T15:18:11.945Z,35.77
2019-04-28T15:20:41.497Z,34.69
2019-04-28T15:23:10.899Z,33.46
2019-04-28T15:25:40.538Z,35.38
2019-04-28T15:28:10.100Z,36.71
2019-04-28T15:30:39.530Z,35.38
2019-04-28T15:33:08.963Z,35.47
2019-04-28T15:35:38.529Z,34.93
2019-04-28T15:38:09.198Z,36.90
2019-04-28T15:40:38.684Z,39.40
2019-04-28T15:43:08.263Z,40.71
2019-04-28T15:45:37.772Z,41.33
2019-04-28T15:48:07.391Z,42.19
2019-04-28T15:50:38.905Z,44.45
2019-04-28T15:53:08.486Z,46.14
2019-04-28T15:55:50.359Z,47.82
2019-04-28T15:58:36.875Z,48.82
2019-04-28T16:01:06.683Z,50.74
2019-04-28T16:03:36.142Z,52.14
2019-04-28T16:06:05.825Z,53.15
2019-04-28T16:08:35.338Z,53.63
2019-04-28T16:11:05.129Z,54.08
2019-04-28T16:13:34.787Z,54.85
2019-04-28T16:16:04.428Z,55.53
2019-04-28T16:18:33.946Z,55.26
2019-04-28T16:21:03.455Z,55.23
2019-04-28T16:23:33.083Z,54.78
2019-04-28T16:26:02.598Z,55.10
2019-04-28T16:28:32.133Z,53.48
2019-04-28T16:31:01.619Z,49.32
2019-04-28T16:33:31.319Z,40.90
2019-04-28T16:36:00.939Z,39.00
2019-04-28T16:38:30.642Z,36.80
2019-04-28T16:41:01.125Z,36.16
2019-04-28T16:43:30.762Z,35.45
2019-04-28T16:46:00.237Z,34.22
2019-04-28T16:48:29.836Z,33.73
2019-04-28T16:50:59.418Z,34.37
2019-04-28T16:53:29.111Z,35.25
2019-04-28T16:56:27.203Z,35.07
2019-04-28T16:59:07.718Z,35.99
2019-04-28T17:01:56.287Z,38.01
2019-04-28T17:04:25.899Z,38.62
2019-04-28T17:06:55.365Z,39.25
2019-04-28T17:09:25.108Z,39.90
2019-04-28T17:11:54.932Z,40.83
2019-04-28T17:14:24.541Z,42.00
2019-04-28T17:16:54.094Z,42.91
2019-04-28T17:19:23.830Z,43.78
2019-04-28T17:21:53.561Z,43.79
2019-04-28T17:24:23.326Z,43.83
2019-04-28T17:26:52.906Z,43.14
2019-04-28T17:29:22.571Z,42.58
2019-04-28T17:31:54.580Z,42.41
2019-04-28T17:34:27.198Z,42.56
2019-04-28T17:36:56.866Z,42.80
2019-04-28T17:39:26.888Z,43.69
2019-04-28T17:41:56.746Z,45.10
2019-04-28T17:44:26.511Z,46.06
2019-04-28T17:46:56.097Z,46.86
2019-04-28T17:49:31.828Z,47.77
2019-04-28T17:52:01.801Z,48.68
2019-04-28T17:54:31.562Z,49.87
2019-04-28T17:57:01.229Z,50.78
2019-04-28T17:59:30.827Z,51.81
2019-04-28T18:02:22.148Z,53.15
2019-04-28T18:05:10.822Z,54.39
2019-04-28T18:07:40.911Z,55.76
2019-04-28T18:10:13.761Z,57.00
2019-04-28T18:12:43.598Z,58.23
2019-04-28T18:15:30.842Z,59.40
2019-04-28T18:18:25.741Z,60.65
2019-04-28T18:20:55.300Z,61.76
2019-04-28T18:23:24.939Z,62.85
2019-04-28T18:25:54.598Z,63.91
2019-04-28T18:28:24.459Z,65.01
2019-04-28T18:31:13.144Z,66.00
2019-04-28T18:34:00.457Z,66.99
2019-04-28T18:36:38.130Z,67.93
2019-04-28T18:39:27.255Z,68.81
2019-04-28T18:42:09.142Z,69.74
2019-04-28T18:44:38.962Z,70.66
2019-04-28T18:47:08.711Z,71.86
2019-04-28T18:49:38.443Z,72.45
2019-04-28T18:52:08.140Z,73.33
2019-04-28T18:54:37.963Z,73.75
2019-04-28T18:57:07.482Z,74.56
2019-04-28T18:59:37.365Z,75.12
2019-04-28T19:02:28.890Z,75.69
2019-04-28T19:05:00.300Z,76.39
2019-04-28T19:07:57.932Z,77.05
2019-04-28T19:10:43.686Z,77.77
2019-04-28T19:13:17.734Z,78.35
2019-04-28T19:16:05.138Z,78.92
2019-04-28T19:18:37.802Z,79.60
2019-04-28T19:21:07.482Z,80.31
2019-04-28T19:23:37.387Z,80.97
2019-04-28T19:26:07.184Z,81.33
2019-04-28T19:28:36.787Z,81.69
2019-04-28T19:31:06.288Z,82.10
2019-04-28T19:33:35.966Z,82.55
2019-04-28T19:36:05.639Z,83.19
2019-04-28T19:38:35.339Z,83.35
2019-04-28T19:41:05.238Z,83.89
2019-04-28T19:43:34.981Z,84.19
2019-04-28T19:46:07.040Z,84.37
2019-04-28T19:48:36.907Z,84.75
2019-04-28T19:51:06.678Z,85.49
2019-04-28T19:53:36.372Z,85.41
2019-04-28T19:56:12.280Z,85.88
2019-04-28T19:58:56.090Z,86.20
2019-04-28T20:01:27.776Z,86.37
2019-04-28T20:03:57.472Z,86.59
2019-04-28T20:06:30.309Z,87.11
2019-04-28T20:08:59.796Z,87.33
2019-04-28T20:11:29.591Z,87.56
2019-04-28T20:14:00.678Z,87.91
2019-04-28T20:16:30.227Z,88.38
2019-04-28T20:19:00.038Z,88.59
2019-04-28T20:21:29.607Z,89.16
2019-04-28T20:23:59.388Z,89.76
2019-04-28T20:26:28.983Z,89.59
2019-04-28T20:28:58.420Z,89.72
2019-04-28T20:31:27.920Z,89.83
2019-04-28T20:33:57.401Z,90.25
2019-04-28T20:36:36.218Z,90.86
2019-04-28T20:39:10.657Z,90.81
2019-04-28T20:41:40.081Z,91.14
2019-04-28T20:44:09.565Z,91.63
2019-04-28T20:46:39.076Z,91.40
2019-04-28T20:49:08.664Z,91.54
2019-04-28T20:51:41.249Z,91.69
2019-04-28T20:54:10.743Z,91.85
2019-04-28T20:56:40.263Z,92.18
2019-04-28T20:59:09.583Z,92.44
2019-04-28T21:01:39.214Z,92.74
2019-04-28T21:04:08.870Z,92.83
2019-04-28T21:06:38.280Z,92.92
2019-04-28T21:09:09.925Z,93.01
2019-04-28T21:11:39.424Z,93.34
2019-04-28T21:14:08.794Z,93.48
2019-04-28T21:16:38.280Z,93.73
2019-04-28T21:19:07.701Z,94.68
2019-04-28T21:21:37.185Z,95.18
2019-04-28T21:24:06.761Z,95.24
2019-04-28T21:26:36.294Z,94.76
2019-04-28T21:29:05.717Z,94.90
2019-04-28T21:31:35.135Z,94.75
2019-04-28T21:34:04.549Z,94.85
2019-04-28T21:36:35.070Z,94.95
2019-04-28T21:39:06.009Z,95.18
2019-04-28T21:41:35.422Z,95.30
2019-04-28T21:44:14.675Z,95.37
2019-04-28T21:46:49.343Z,95.48
2019-04-28T21:49:30.432Z,95.64
2019-04-28T21:52:00.038Z,95.76
2019-04-28T21:54:29.519Z,95.96
2019-04-28T21:56:59.071Z,96.12
2019-04-28T21:59:28.689Z,96.22
2019-04-28T22:01:58.257Z,96.32
2019-04-28T22:04:28.542Z,96.38
2019-04-28T22:06:58.044Z,96.56
2019-04-28T22:09:27.509Z,96.62
2019-04-28T22:11:56.978Z,96.76
2019-04-28T22:14:26.444Z,96.80
2019-04-28T22:16:55.985Z,96.90
2019-04-28T22:19:25.411Z,97.05
2019-04-28T22:21:54.891Z,97.17
2019-04-28T22:24:38.654Z,97.45
2019-04-28T22:27:10.042Z,97.51
2019-04-28T22:29:39.882Z,97.66
2019-04-28T22:32:09.304Z,98.02
2019-04-28T22:34:38.844Z,98.07
2019-04-28T22:37:08.363Z,98.08
2019-04-28T22:39:37.795Z,97.96
2019-04-28T22:42:07.230Z,97.87
2019-04-28T22:44:36.718Z,97.90
2019-04-28T22:47:06.182Z,97.97
2019-04-28T22:49:35.578Z,98.05
2019-04-28T22:52:04.971Z,98.31
2019-04-28T22:55:08.615Z,98.62
2019-04-28T22:57:54.444Z,98.57
2019-04-28T23:03:39.383Z,98.42
2019-04-28T23:06:10.563Z,98.61
2019-04-28T23:08:40.172Z,98.74
2019-04-28T23:11:09.691Z,99.06
2019-04-28T23:13:39.131Z,99.12
2019-04-28T23:16:08.564Z,99.41
2019-04-28T23:18:38.041Z,99.30
2019-04-28T23:21:29.393Z,99.30
2019-04-28T23:23:58.713Z,99.39
2019-04-28T23:26:28.303Z,99.28
2019-04-28T23:28:57.739Z,99.13
2019-04-28T23:31:27.179Z,99.31
2019-04-28T23:33:56.807Z,99.34
2019-04-28T23:36:26.312Z,99.25
2019-04-28T23:38:55.839Z,99.40
2019-04-28T23:41:32.381Z,99.90
2019-04-28T23:44:01.751Z,99.78
2019-04-28T23:46:48.868Z,99.70
2019-04-28T23:49:18.323Z,99.66
2019-04-28T23:51:56.002Z,99.58
2019-04-28T23:54:25.334Z,99.84
2019-04-28T23:56:54.797Z,100.00
2019-04-28T23:59:24.265Z,100.00
